Address 0x9757400188f2f54b83ac4dc290ab89dde526da10 12

 
 
Txn Hash Method
Block
From
To
Value [Txn Fee]
0x202aa63e506f30416636973445b7773cb28777865cd32ae3832783ee65f667fcTransfer132615312021-12-07 3:42:321 day 9 hrs ago0xfe4493ce82fee8dcf1a4ea59026509237fc4cf75 IN 0x9757400188f2f54b83ac4dc290ab89dde526da100.25 BNB0.000105
0x31093bf503b601c91c7b4b82bd7c949b081da61ebb8f15a287226e67c85865e2Trade128906932021-11-23 13:08:4415 days 15 mins ago0x9757400188f2f54b83ac4dc290ab89dde526da10OUT 0xdb282bbace4e375ff2901b84aceb33016d0d663d0 BNB0.006352295
0xd7cf054d44b99e744a274e3cf155ee600f7b4ab98e7f11b98643257cc2ef9addRemove Liquidity128188562021-11-20 23:42:3817 days 13 hrs ago0x9757400188f2f54b83ac4dc290ab89dde526da10OUT 0xdb282bbace4e375ff2901b84aceb33016d0d663d0 BNB0.00507845
0xe36a5cd1bb21382b59bec2ccd96355ff60978110abbf49bc1a0b4cb256018fc9Remove Liquidity128181452021-11-20 23:07:0417 days 14 hrs ago0x9757400188f2f54b83ac4dc290ab89dde526da10OUT 0xdb282bbace4e375ff2901b84aceb33016d0d663d0 BNB0.00480545
0x232b7485e6697b3710d933886bb0270680e19fa37e28ceccdd8482bebc458b0dAdd Liquidity128180902021-11-20 23:04:1917 days 14 hrs ago0x9757400188f2f54b83ac4dc290ab89dde526da10OUT 0xdb282bbace4e375ff2901b84aceb33016d0d663d0 BNB0.005028325
0x3acd2735bad02c45dccd415b4839f75caed503b6abe76ed41b5d94fb7ec32aeeRemove Liquidity128180492021-11-20 23:02:1617 days 14 hrs ago0x9757400188f2f54b83ac4dc290ab89dde526da10OUT 0xdb282bbace4e375ff2901b84aceb33016d0d663d0 BNB0.00494482
0xaf5435978a2ccfab1a4a76fb2d38b98e8b5a5ea8960f7c00a1456fba70e68e2cTrade121392112021-10-27 15:55:4041 days 21 hrs ago0x9757400188f2f54b83ac4dc290ab89dde526da10OUT 0xdb282bbace4e375ff2901b84aceb33016d0d663d0 BNB0.003772265
0xfec871da0c9f2dee27daecd448f9da28033f8deefff7b04bb75470777c567809Check In117935402021-10-15 12:18:5454 days 1 hr ago0x9757400188f2f54b83ac4dc290ab89dde526da10OUT 0xcd90363c0659488fa7d93a6e505ef60a88547f810 BNB0.0001963
0x223bf8a9db5cb5da89f53eba45b9e222169a315f9c615d3efd33e6a99f81647dDonate Insurance...117913052021-10-15 10:27:0254 days 2 hrs ago0x9757400188f2f54b83ac4dc290ab89dde526da10OUT 0xdb282bbace4e375ff2901b84aceb33016d0d663d0 BNB0.000384795
0xbb6de71ed18c97d0930eded878a75c19e0608044815e96e97591361872bef9b1Trade117912972021-10-15 10:26:3854 days 2 hrs ago0x9757400188f2f54b83ac4dc290ab89dde526da10OUT 0xdb282bbace4e375ff2901b84aceb33016d0d663d0 BNB0.003900905
0x40f18e5807c3ed94bd9dac6b0b58a43a896a95a6410ff0be616d208d69986de5Transfer117393982021-10-13 15:00:2055 days 22 hrs ago0x9757400188f2f54b83ac4dc290ab89dde526da10SELF0x9757400188f2f54b83ac4dc290ab89dde526da100 BNB0.000105
0xbb019b24a6cb5293defe9477629d578cc36f970da44fb9f6f20d51d2feda7b13Trade117106642021-10-12 14:37:5856 days 22 hrs ago0x9757400188f2f54b83ac4dc290ab89dde526da10OUT 0xf6b2d76c248af20009188139660a516e5c4e05320 BNB0.003052935
0x02fa1b9ac1d7ee61162b00a26efa40931c5905520d03e9ed7e77393ddad79cf1Trade117106492021-10-12 14:37:1356 days 22 hrs ago0x9757400188f2f54b83ac4dc290ab89dde526da10OUT 0xf6b2d76c248af20009188139660a516e5c4e05320 BNB0.005255495
0x01ccfa2e58a3677454eb205b874db8dff2496a0f32f3501fd98ac1973da20343Approve117106452021-10-12 14:37:0156 days 22 hrs ago0x9757400188f2f54b83ac4dc290ab89dde526da10OUT Ethereum: ETH Token0 BNB0.00022095
0xa491e8313390ab00920915b5c2385a8264ae16b6439dc30e2f84c515f505e37aDeposit117094232021-10-12 13:34:1556 days 23 hrs ago0x9757400188f2f54b83ac4dc290ab89dde526da10OUT 0xdb282bbace4e375ff2901b84aceb33016d0d663d0 BNB0.00047457
0x0528c6df7caf35efe94912410f00180c6900c73d8a63ea3358be7da664c4eacb0x7889515b117090602021-10-12 13:15:1857 days 8 mins ago0x9757400188f2f54b83ac4dc290ab89dde526da10OUT MCDEX: Oracle Router Creator0 BNB0.00536124
0x9cc7ee888a38b257f9b41740d1cb3f5551631bb72ebf30626ea06d3235bef6d9Create Liquidity...117090562021-10-12 13:15:0657 days 9 mins ago0x9757400188f2f54b83ac4dc290ab89dde526da10OUT MCDEX: Pool Creator0 BNB0.00870043
0x1549c5dece0cdf437114aa5dcfd5a32cba9251e24c83a01e1b0d0076df60c0fdTrade117026452021-10-12 7:52:2457 days 5 hrs ago0x9757400188f2f54b83ac4dc290ab89dde526da10OUT 0xdb282bbace4e375ff2901b84aceb33016d0d663d0 BNB0.003584245
0x599d18867665ac0443e7baccf946bb9d6144f4f575aa3bb796bd7a04fef08f70Trade117026352021-10-12 7:51:5457 days 5 hrs ago0x9757400188f2f54b83ac4dc290ab89dde526da10OUT 0xdb282bbace4e375ff2901b84aceb33016d0d663d0 BNB0.003500715
0xc5b84da4a634e93c39e5c79e052fdbc44e7d5e1c940a2b9ab47b6a9ae5503330Transfer117023282021-10-12 7:36:3357 days 5 hrs ago0x9757400188f2f54b83ac4dc290ab89dde526da10SELF0x9757400188f2f54b83ac4dc290ab89dde526da100 BNB0.000105
0x7f681c5f2923834b86c2ac38a8d1f36d2330d9c99019a9283ddbf35150f69440Deposit116465572021-10-10 8:19:0659 days 5 hrs ago0x9757400188f2f54b83ac4dc290ab89dde526da10OUT 0xdb282bbace4e375ff2901b84aceb33016d0d663d0 BNB0.00047451
0xb5cd24ef3c75e6fef03eb4aa253793e06fb6a2a36df7030e6040af849a5e8a2eDeposit116465522021-10-10 8:18:5159 days 5 hrs ago0x9757400188f2f54b83ac4dc290ab89dde526da10OUT 0xdb282bbace4e375ff2901b84aceb33016d0d663d0 BNB0.00047445
0xb5931dd4e8dd81127c907992c8d7d55d207a7df3ae9ac5a72323fa7875bd170eWithdraw116465472021-10-10 8:18:3659 days 5 hrs ago0x9757400188f2f54b83ac4dc290ab89dde526da10OUT 0xdb282bbace4e375ff2901b84aceb33016d0d663d0 BNB0.00240537
0x932ce913fb15fe4046278fd8d40ee43377fcceb7211adabac63b87d2d431ef83Trade116465442021-10-10 8:18:2759 days 5 hrs ago0x9757400188f2f54b83ac4dc290ab89dde526da10OUT 0xdb282bbace4e375ff2901b84aceb33016d0d663d0 BNB0.00361436
0x8f6e0d656fe44c2966db645cab33ee0eabf346370817b325639c5a1fe945cfe5Trade116465302021-10-10 8:17:4559 days 5 hrs ago0x9757400188f2f54b83ac4dc290ab89dde526da10OUT 0xdb282bbace4e375ff2901b84aceb33016d0d663d0 BNB0.00410889
[ Download CSV Export 
Latest 3 internal transactions
Parent Txn Hash Block From To Value
0xc5a1a5547ce2b5a99936f2e35dde356caa513178e2577868bba0ff2e9ce14d5c111680022021-09-23 15:09:4875 days 22 hrs ago MCDEX: Broker0x9757400188f2f54b83ac4dc290ab89dde526da100.11 BNB
0x2e5ca71098e9486fc84e306fed28edabc95df376204e61dd55cbf60ead304ad3111636522021-09-23 11:27:5376 days 1 hr ago PancakeSwap: Router v20x9757400188f2f54b83ac4dc290ab89dde526da100.001344028326963321 BNB
0x28c23038c90cd17ff78ec747987ba9e70165f5be33626ee9e0500da5846dcc04111618182021-09-23 9:56:0476 days 3 hrs ago PancakeSwap: Router v20x9757400188f2f54b83ac4dc290ab89dde526da100.000807691307356962 BNB
[ Download CSV Export 
Loading

Contract Name:
0 BNB

Compiler Version
0

Optimization Enabled:
0 BNB

Other Settings:
-NA-
Block Transaction Gas Used Reward
Age Block Fee Address BC Fee Address Voting Power Jailed Incoming
Block Uncle Number Difficulty Gas Used Reward
Loading
Loading
Make sure to use the "Vote Down" button for any spammy posts, and the "Vote Up" for interesting conversations.